Warminster, Pennsylvania
Current Conditions -  °F | °C
As of 1:54 PM on Friday 24 Oct 2014 (Local Time) from KPNE Reporting Station
Clear Clear  
Wind Chill: 69°   Ceiling: Unl
Heat Index: 69°   Visibility: 10mi
Dew Point: 41°   Wind: 16mph
Humidity: 36%   Direction: 330°NNW
Pressure: 29.82"   Gusts: 24mph
Location:  40.18°N, 75.07°W
Report Text: KPNE 241754Z AUTO 33014G21KT 10SM CLR 21/05 A2982 RMK AO2 SLP097 T02060050 10206 20133 TSNO
Loading
Personal Weather Stations






























Interactive Weather Map
Tropical Storm Tracking
New forecast layout! Learn more

10-Day Weather Forecast

Advertisements
Track Severe Weather on mobile